CFG2PL EBBR-EDDK
Flight info
| Callsign | CFG2PL |
|---|---|
| Flight time | 0h 31m |
| Altitude | 17000 |
| Route | LNO M170 KENUM/N0368F130 T862 ERUKI ERUKI1G |
| Aircraft | A320/M-SDE3FGHIRWY/LB1 |
Departure
| Time | 2026-04-30 11:43 |
|---|---|
| Airport | Brussels Airport (EBBR) |
Arrival
| Time | 2026-04-30 12:15 |
|---|---|
| Airport | Cologne Bonn Airport (EDDK) |
| Time | Latitude | Longitude | Altitude | Speed | Heading |
|---|---|---|---|---|---|
| 2026-04-30 11:19 | 50.90097 | 4.48836 | 145 ft | 0 kts | 155° |
| 2026-04-30 11:35 | 50.90103 | 4.48831 | 144 ft | 2 kts | 152° |
| 2026-04-30 11:35 | 50.90118 | 4.48820 | 144 ft | 2 kts | 152° |
| 2026-04-30 11:35 | 50.90132 | 4.48808 | 143 ft | 2 kts | 154° |
| 2026-04-30 11:36 | 50.90147 | 4.48796 | 142 ft | 2 kts | 142° |
| 2026-04-30 11:36 | 50.90159 | 4.48777 | 141 ft | 2 kts | 104° |
| 2026-04-30 11:36 | 50.90160 | 4.48752 | 140 ft | 2 kts | 78° |
| 2026-04-30 11:36 | 50.90158 | 4.48736 | 140 ft | 1 kts | 64° |
| 2026-04-30 11:37 | 50.90158 | 4.48735 | 140 ft | 0 kts | 64° |
| 2026-04-30 11:38 | 50.90169 | 4.48774 | 140 ft | 10 kts | 65° |
| 2026-04-30 11:38 | 50.90206 | 4.48911 | 141 ft | 14 kts | 68° |
| 2026-04-30 11:38 | 50.90247 | 4.49053 | 141 ft | 15 kts | 65° |
| 2026-04-30 11:39 | 50.90294 | 4.49212 | 138 ft | 17 kts | 65° |
| 2026-04-30 11:39 | 50.90324 | 4.49388 | 138 ft | 13 kts | 117° |
| 2026-04-30 11:39 | 50.90282 | 4.49402 | 140 ft | 5 kts | 188° |
| 2026-04-30 11:39 | 50.90190 | 4.49368 | 143 ft | 18 kts | 194° |
| 2026-04-30 11:40 | 50.90092 | 4.49325 | 149 ft | 12 kts | 194° |
| 2026-04-30 11:40 | 50.90016 | 4.49344 | 153 ft | 16 kts | 153° |
| 2026-04-30 11:40 | 50.89903 | 4.49367 | 157 ft | 16 kts | 194° |
| 2026-04-30 11:40 | 50.89796 | 4.49321 | 160 ft | 18 kts | 195° |
| 2026-04-30 11:41 | 50.89686 | 4.49278 | 162 ft | 15 kts | 194° |
| 2026-04-30 11:41 | 50.89598 | 4.49219 | 163 ft | 13 kts | 212° |
| 2026-04-30 11:41 | 50.89527 | 4.49173 | 164 ft | 10 kts | 195° |
| 2026-04-30 11:41 | 50.89463 | 4.49145 | 164 ft | 10 kts | 194° |
| 2026-04-30 11:42 | 50.89344 | 4.49098 | 164 ft | 20 kts | 194° |
| 2026-04-30 11:42 | 50.89223 | 4.49046 | 167 ft | 16 kts | 197° |
| 2026-04-30 11:42 | 50.89138 | 4.49036 | 169 ft | 9 kts | 121° |
| 2026-04-30 11:42 | 50.89145 | 4.49087 | 169 ft | 0 kts | 70° |
| 2026-04-30 11:43 | 50.89154 | 4.49124 | 169 ft | 23 kts | 70° |
| 2026-04-30 11:43 | 50.89293 | 4.49729 | 173 ft | 90 kts | 70° |
| 2026-04-30 11:43 | 50.89575 | 4.50944 | 203 ft | 139 kts | 69° |
| 2026-04-30 11:43 | 50.89911 | 4.52228 | 929 ft | 123 kts | 72° |
| 2026-04-30 11:44 | 50.90240 | 4.53509 | 1466 ft | 130 kts | 71° |
| 2026-04-30 11:44 | 50.90628 | 4.54894 | 1940 ft | 143 kts | 71° |
| 2026-04-30 11:44 | 50.91094 | 4.56426 | 2205 ft | 174 kts | 65° |
| 2026-04-30 11:44 | 50.91702 | 4.58274 | 2569 ft | 199 kts | 66° |
| 2026-04-30 11:45 | 50.92381 | 4.60308 | 3010 ft | 220 kts | 67° |
| 2026-04-30 11:45 | 50.93093 | 4.62454 | 3667 ft | 226 kts | 67° |
| 2026-04-30 11:45 | 50.93792 | 4.64753 | 4298 ft | 239 kts | 73° |
| 2026-04-30 11:45 | 50.94351 | 4.67291 | 5020 ft | 247 kts | 76° |
| 2026-04-30 11:46 | 50.94862 | 4.69919 | 5887 ft | 252 kts | 77° |
| 2026-04-30 11:46 | 50.95362 | 4.72607 | 6786 ft | 255 kts | 78° |
| 2026-04-30 11:46 | 50.95551 | 4.75399 | 7558 ft | 257 kts | 97° |
| 2026-04-30 11:46 | 50.95086 | 4.78127 | 8363 ft | 259 kts | 116° |
| 2026-04-30 11:47 | 50.94015 | 4.80442 | 9176 ft | 265 kts | 136° |
| 2026-04-30 11:47 | 50.92587 | 4.82335 | 9973 ft | 270 kts | 138° |
| 2026-04-30 11:47 | 50.91144 | 4.84219 | 10687 ft | 278 kts | 138° |
| 2026-04-30 11:47 | 50.89501 | 4.86084 | 10940 ft | 304 kts | 147° |
| 2026-04-30 11:48 | 50.87510 | 4.87572 | 11111 ft | 330 kts | 158° |
| 2026-04-30 11:48 | 50.85200 | 4.88465 | 11300 ft | 354 kts | 170° |
| 2026-04-30 11:48 | 50.82705 | 4.88827 | 11833 ft | 363 kts | 172° |
| 2026-04-30 11:48 | 50.80173 | 4.89202 | 12456 ft | 368 kts | 171° |
| 2026-04-30 11:49 | 50.77689 | 4.90105 | 13070 ft | 368 kts | 155° |
| 2026-04-30 11:49 | 50.75500 | 4.92176 | 13697 ft | 368 kts | 137° |
| 2026-04-30 11:49 | 50.73870 | 4.95206 | 14294 ft | 369 kts | 119° |
| 2026-04-30 11:49 | 50.72894 | 4.98947 | 14872 ft | 371 kts | 107° |
| 2026-04-30 11:50 | 50.72134 | 5.02857 | 15481 ft | 374 kts | 106° |
| 2026-04-30 11:50 | 50.71375 | 5.06790 | 16090 ft | 376 kts | 106° |
| 2026-04-30 11:50 | 50.70608 | 5.10757 | 16689 ft | 380 kts | 106° |
| 2026-04-30 11:50 | 50.69832 | 5.14746 | 17171 ft | 383 kts | 106° |
| 2026-04-30 11:51 | 50.69041 | 5.18773 | 17299 ft | 386 kts | 107° |
| 2026-04-30 11:51 | 50.68225 | 5.22900 | 17331 ft | 403 kts | 107° |
| 2026-04-30 11:51 | 50.67376 | 5.27184 | 17329 ft | 413 kts | 107° |
| 2026-04-30 11:51 | 50.66526 | 5.31453 | 17329 ft | 415 kts | 107° |
| 2026-04-30 11:52 | 50.65661 | 5.35794 | 17328 ft | 415 kts | 107° |
| 2026-04-30 11:52 | 50.64797 | 5.40133 | 17330 ft | 415 kts | 107° |
| 2026-04-30 11:52 | 50.63931 | 5.44481 | 17325 ft | 415 kts | 107° |
| 2026-04-30 11:52 | 50.63063 | 5.48817 | 17327 ft | 415 kts | 107° |
| 2026-04-30 11:53 | 50.62194 | 5.53150 | 17330 ft | 415 kts | 107° |
| 2026-04-30 11:53 | 50.61320 | 5.57491 | 17329 ft | 415 kts | 107° |
| 2026-04-30 11:53 | 50.60443 | 5.61829 | 17325 ft | 415 kts | 107° |
| 2026-04-30 11:53 | 50.59747 | 5.66226 | 17324 ft | 414 kts | 98° |
| 2026-04-30 11:54 | 50.59569 | 5.70685 | 17324 ft | 414 kts | 88° |
| 2026-04-30 11:54 | 50.59919 | 5.75169 | 17318 ft | 414 kts | 78° |
| 2026-04-30 11:54 | 50.60787 | 5.79492 | 17322 ft | 415 kts | 69° |
| 2026-04-30 11:54 | 50.61890 | 5.83692 | 17324 ft | 415 kts | 69° |
| 2026-04-30 11:55 | 50.62989 | 5.87905 | 17326 ft | 415 kts | 69° |
| 2026-04-30 11:55 | 50.64079 | 5.92107 | 17335 ft | 415 kts | 69° |
| 2026-04-30 11:55 | 50.65165 | 5.96315 | 17339 ft | 415 kts | 69° |
| 2026-04-30 11:55 | 50.66249 | 6.00517 | 17340 ft | 414 kts | 69° |
| 2026-04-30 11:56 | 50.67318 | 6.04670 | 17343 ft | 414 kts | 69° |
| 2026-04-30 11:56 | 50.68396 | 6.08866 | 17345 ft | 413 kts | 69° |
| 2026-04-30 11:56 | 50.69475 | 6.13071 | 17351 ft | 413 kts | 69° |
| 2026-04-30 11:56 | 50.70524 | 6.17268 | 17200 ft | 408 kts | 72° |
| 2026-04-30 11:57 | 50.71157 | 6.21574 | 16948 ft | 403 kts | 83° |
| 2026-04-30 11:57 | 50.71264 | 6.25963 | 16413 ft | 397 kts | 93° |
| 2026-04-30 11:57 | 50.70830 | 6.30250 | 15735 ft | 396 kts | 104° |
| 2026-04-30 11:57 | 50.69959 | 6.34364 | 15087 ft | 394 kts | 108° |
| 2026-04-30 11:58 | 50.69049 | 6.38423 | 14445 ft | 392 kts | 108° |
| 2026-04-30 11:58 | 50.68146 | 6.42479 | 13769 ft | 390 kts | 108° |
| 2026-04-30 11:58 | 50.67279 | 6.46378 | 13170 ft | 374 kts | 108° |
| 2026-04-30 11:58 | 50.66424 | 6.50228 | 12580 ft | 370 kts | 108° |
| 2026-04-30 11:59 | 50.65578 | 6.54037 | 11979 ft | 366 kts | 108° |
| 2026-04-30 11:59 | 50.64754 | 6.57743 | 11594 ft | 346 kts | 108° |
| 2026-04-30 11:59 | 50.63988 | 6.61171 | 11444 ft | 318 kts | 109° |
| 2026-04-30 11:59 | 50.63280 | 6.64328 | 11331 ft | 294 kts | 108° |
| 2026-04-30 12:00 | 50.62618 | 6.67260 | 11058 ft | 278 kts | 109° |
| 2026-04-30 12:00 | 50.62173 | 6.70187 | 10393 ft | 275 kts | 89° |
| 2026-04-30 12:00 | 50.62616 | 6.73012 | 10112 ft | 272 kts | 64° |
| 2026-04-30 12:00 | 50.63843 | 6.75272 | 9766 ft | 274 kts | 44° |
| 2026-04-30 12:01 | 50.65332 | 6.77142 | 9379 ft | 275 kts | 41° |
| 2026-04-30 12:01 | 50.66826 | 6.79010 | 9044 ft | 272 kts | 46° |
| 2026-04-30 12:01 | 50.68179 | 6.81066 | 8695 ft | 269 kts | 49° |
| 2026-04-30 12:01 | 50.69436 | 6.83223 | 8337 ft | 266 kts | 53° |
| 2026-04-30 12:02 | 50.70648 | 6.85417 | 8009 ft | 264 kts | 53° |
| 2026-04-30 12:02 | 50.71850 | 6.87598 | 7662 ft | 263 kts | 53° |
| 2026-04-30 12:02 | 50.73048 | 6.89762 | 7314 ft | 261 kts | 53° |
| 2026-04-30 12:02 | 50.74227 | 6.91885 | 6956 ft | 259 kts | 53° |
| 2026-04-30 12:03 | 50.75417 | 6.94016 | 6566 ft | 259 kts | 53° |
| 2026-04-30 12:03 | 50.77798 | 6.98246 | 5822 ft | 256 kts | 53° |
| 2026-04-30 12:03 | 50.79078 | 7.00212 | 5476 ft | 261 kts | 38° |
| 2026-04-30 12:04 | 50.80815 | 7.01181 | 5119 ft | 273 kts | 9° |
| 2026-04-30 12:04 | 50.82708 | 7.00746 | 4731 ft | 283 kts | 341° |
| 2026-04-30 12:04 | 50.84351 | 6.99021 | 4502 ft | 285 kts | 321° |
| 2026-04-30 12:04 | 50.85840 | 6.96915 | 4340 ft | 287 kts | 319° |
| 2026-04-30 12:05 | 50.87275 | 6.94831 | 4180 ft | 280 kts | 319° |
| 2026-04-30 12:05 | 50.88690 | 6.92768 | 4022 ft | 272 kts | 319° |
| 2026-04-30 12:05 | 50.90060 | 6.90769 | 3876 ft | 263 kts | 319° |
| 2026-04-30 12:05 | 50.91382 | 6.88835 | 3712 ft | 256 kts | 320° |
| 2026-04-30 12:06 | 50.92685 | 6.86931 | 3558 ft | 252 kts | 319° |
| 2026-04-30 12:06 | 50.93950 | 6.85081 | 3404 ft | 243 kts | 320° |
| 2026-04-30 12:06 | 50.95173 | 6.83276 | 3248 ft | 239 kts | 320° |
| 2026-04-30 12:06 | 50.96381 | 6.81484 | 3109 ft | 237 kts | 320° |
| 2026-04-30 12:07 | 50.97557 | 6.79723 | 3006 ft | 234 kts | 320° |
| 2026-04-30 12:07 | 50.98895 | 6.78437 | 2957 ft | 216 kts | 353° |
| 2026-04-30 12:07 | 51.00275 | 6.78543 | 2978 ft | 184 kts | 32° |
| 2026-04-30 12:07 | 51.01268 | 6.79685 | 3002 ft | 172 kts | 51° |
| 2026-04-30 12:08 | 51.01784 | 6.81273 | 3001 ft | 161 kts | 76° |
| 2026-04-30 12:08 | 51.02151 | 6.82947 | 2985 ft | 160 kts | 73° |
| 2026-04-30 12:08 | 51.02534 | 6.84623 | 2977 ft | 162 kts | 73° |
| 2026-04-30 12:08 | 51.02935 | 6.86291 | 2983 ft | 157 kts | 73° |
| 2026-04-30 12:09 | 51.03305 | 6.87899 | 2987 ft | 153 kts | 79° |
| 2026-04-30 12:09 | 51.03336 | 6.89534 | 2979 ft | 148 kts | 101° |
| 2026-04-30 12:09 | 51.02956 | 6.91018 | 2986 ft | 149 kts | 122° |
| 2026-04-30 12:09 | 51.02240 | 6.92210 | 2988 ft | 150 kts | 135° |
| 2026-04-30 12:10 | 51.01472 | 6.93335 | 2995 ft | 152 kts | 134° |
| 2026-04-30 12:10 | 51.00700 | 6.94466 | 2976 ft | 150 kts | 135° |
| 2026-04-30 12:10 | 50.99925 | 6.95599 | 2992 ft | 151 kts | 134° |
| 2026-04-30 12:10 | 50.99152 | 6.96728 | 2979 ft | 150 kts | 134° |
| 2026-04-30 12:11 | 50.98383 | 6.97853 | 2939 ft | 148 kts | 134° |
| 2026-04-30 12:11 | 50.97650 | 6.98925 | 2814 ft | 140 kts | 131° |
| 2026-04-30 12:11 | 50.96939 | 6.99961 | 2646 ft | 138 kts | 134° |
| 2026-04-30 12:11 | 50.96235 | 7.00988 | 2475 ft | 136 kts | 134° |
| 2026-04-30 12:12 | 50.95541 | 7.02001 | 2289 ft | 139 kts | 134° |
| 2026-04-30 12:12 | 50.94837 | 7.03026 | 2099 ft | 137 kts | 134° |
| 2026-04-30 12:12 | 50.94130 | 7.04053 | 1915 ft | 138 kts | 134° |
| 2026-04-30 12:12 | 50.93430 | 7.05075 | 1729 ft | 136 kts | 133° |
| 2026-04-30 12:13 | 50.92736 | 7.06086 | 1552 ft | 136 kts | 133° |
| 2026-04-30 12:13 | 50.92039 | 7.07101 | 1348 ft | 134 kts | 133° |
| 2026-04-30 12:13 | 50.91348 | 7.08108 | 1169 ft | 135 kts | 133° |
| 2026-04-30 12:13 | 50.90650 | 7.09122 | 972 ft | 138 kts | 133° |
| 2026-04-30 12:14 | 50.89937 | 7.10161 | 800 ft | 143 kts | 135° |
| 2026-04-30 12:14 | 50.89213 | 7.11210 | 601 ft | 140 kts | 135° |
| 2026-04-30 12:14 | 50.88502 | 7.12262 | 406 ft | 140 kts | 134° |
| 2026-04-30 12:14 | 50.87802 | 7.13272 | 258 ft | 129 kts | 134° |
| 2026-04-30 12:15 | 50.87301 | 7.14000 | 265 ft | 56 kts | 139° |
| 2026-04-30 12:15 | 50.87063 | 7.14336 | 271 ft | 41 kts | 136° |
| 2026-04-30 12:15 | 50.86893 | 7.14529 | 270 ft | 16 kts | 190° |
| 2026-04-30 12:15 | 50.86870 | 7.14469 | 270 ft | 8 kts | 279° |
| 2026-04-30 12:16 | 50.86884 | 7.14351 | 272 ft | 11 kts | 281° |
| 2026-04-30 12:16 | 50.86897 | 7.14241 | 271 ft | 11 kts | 281° |
| 2026-04-30 12:16 | 50.86924 | 7.14046 | 267 ft | 21 kts | 286° |
| 2026-04-30 12:16 | 50.86984 | 7.13837 | 262 ft | 22 kts | 309° |
| 2026-04-30 12:17 | 50.87214 | 7.13506 | 251 ft | 23 kts | 314° |
| 2026-04-30 12:17 | 50.87331 | 7.13333 | 247 ft | 23 kts | 317° |
| 2026-04-30 12:17 | 50.87446 | 7.13169 | 247 ft | 21 kts | 319° |
| 2026-04-30 12:18 | 50.87551 | 7.13014 | 245 ft | 20 kts | 318° |
| 2026-04-30 12:18 | 50.87652 | 7.12868 | 241 ft | 21 kts | 317° |
| 2026-04-30 12:18 | 50.87759 | 7.12719 | 238 ft | 20 kts | 314° |
| 2026-04-30 12:18 | 50.87847 | 7.12595 | 235 ft | 13 kts | 329° |
| 2026-04-30 12:19 | 50.87878 | 7.12500 | 235 ft | 10 kts | 278° |
| 2026-04-30 12:19 | 50.87882 | 7.12471 | 234 ft | 0 kts | 284° |